Time;durP1;ratioP1;P1;durP2;ratioP2;P2;SDS_P1;SDS_P2;PMS_P1;PMS_P2;Temp;Humidity;BMP_temperature;BMP_pressure;BME280_temperature;BME280_humidity;BME280_pressure;Samples;Min_cycle;Max_cycle;Signal;HPM_P1;HPM_P2
2022/12/07 00:00:44;;;;;;;;;;;;;;;;;;5062902;28;864;-82
2022/12/07 00:03:10;;;;;;;;;;;;;;;;;;5064423;28;1071;-84
2022/12/07 00:05:37;;;;;;;;;;;;;;;;;;5045703;28;1144;-82
2022/12/07 00:08:03;;;;;;;;;;;;;;;;;;5046257;28;1327;-82
2022/12/07 00:10:29;;;;;;;;;;;;;;;;;;5046207;28;1320;-82
2022/12/07 00:12:55;;;;;;;;;;;;;;;;;;5061703;28;958;-82
2022/12/07 00:15:21;;;;;;;;;;;;;;;;;;5062586;28;1894;-82
2022/12/07 00:17:47;;;;;;;;;;;;;;;;;;5045083;28;1467;-81
2022/12/07 00:20:13;;;;;;;;;;;;;;;;;;5064269;28;1162;-81
2022/12/07 00:22:39;;;;;;;;;;;;;;;;;;5062833;28;1075;-82
2022/12/07 00:25:05;;;;;;;;;;;;;;;;;;5063418;28;1790;-82
2022/12/07 00:27:31;;;;;;;;;;;;;;;;;;5064159;28;1403;-82
2022/12/07 00:29:57;;;;;;;;;;;;;;;;;;5044906;28;1409;-83
2022/12/07 00:32:23;;;;;;;;;;;;;;;;;;5061919;28;584;-83
2022/12/07 00:34:49;;;;;;;;;;;;;;;;;;5065748;28;1971;-83
2022/12/07 00:37:16;;;;;;;;;;;;;;;;;;5062886;28;1349;-83
2022/12/07 00:39:42;;;;;;;;;;;;;;;;;;5063095;28;845;-82
2022/12/07 00:42:08;;;;;;;;;;;;;;;;;;5063149;28;1036;-83
2022/12/07 00:44:34;;;;;;;;;;;;;;;;;;5063615;28;1116;-82
2022/12/07 00:47:00;;;;;;;;;;;;;;;;;;5061206;28;1469;-82
2022/12/07 00:49:26;;;;;;;;;;;;;;;;;;5062851;28;1111;-82
2022/12/07 00:51:52;;;;;;;;;;;;;;;;;;5062339;28;1076;-82
2022/12/07 00:54:18;;;;;;;;;;;;;;;;;;5043328;28;1140;-80
2022/12/07 00:56:44;;;;;;;;;;;;;;;;;;5060600;28;1918;-81
2022/12/07 00:59:10;;;;;;;;;;;;;;;;;;5042690;28;1437;-82
2022/12/07 01:01:36;;;;;;;;;;;;;;;;;;5041881;28;1393;-83
2022/12/07 01:04:02;;;;;;;;;;;;;;;;;;5061714;28;1040;-82
2022/12/07 01:06:28;;;;;;;;;;;;;;;;;;5061317;28;1084;-81
2022/12/07 01:08:55;;;;;;;;;;;;;;;;;;5043652;28;1324;-82
2022/12/07 01:11:21;;;;;;;;;;;;;;;;;;5042547;28;1111;-81
2022/12/07 01:13:47;;;;;;;;;;;;;;;;;;5043952;28;1155;-81
2022/12/07 01:16:13;;;;;;;;;;;;;;;;;;5042120;28;1979;-81
2022/12/07 01:18:39;;;;;;;;;;;;;;;;;;5060456;28;1413;-82
2022/12/07 01:21:05;;;;;;;;;;;;;;;;;;5043763;28;1242;-82
2022/12/07 01:23:31;;;;;;;;;;;;;;;;;;5060059;28;633;-82
2022/12/07 01:25:57;;;;;;;;;;;;;;;;;;5061540;28;988;-82
2022/12/07 01:28:23;;;;;;;;;;;;;;;;;;5046675;28;1427;-80
2022/12/07 01:30:49;;;;;;;;;;;;;;;;;;5060629;28;1171;-82
2022/12/07 01:33:15;;;;;;;;;;;;;;;;;;5058342;28;1083;-81
2022/12/07 01:35:41;;;;;;;;;;;;;;;;;;5059448;28;1888;-79
2022/12/07 01:38:07;;;;;;;;;;;;;;;;;;5059586;28;1390;-81
2022/12/07 01:40:33;;;;;;;;;;;;;;;;;;5061669;28;1197;-81
2022/12/07 01:43:00;;;;;;;;;;;;;;;;;;5041702;28;1297;-82
2022/12/07 01:45:26;;;;;;;;;;;;;;;;;;5060644;28;1032;-82
2022/12/07 01:47:52;;;;;;;;;;;;;;;;;;5061350;28;1409;-81
2022/12/07 01:50:18;;;;;;;;;;;;;;;;;;5061516;28;1155;-81
2022/12/07 01:52:44;;;;;;;;;;;;;;;;;;5041722;28;1112;-81
2022/12/07 01:55:10;;;;;;;;;;;;;;;;;;5060981;28;1895;-83
2022/12/07 01:57:36;;;;;;;;;;;;;;;;;;5044364;28;1488;-83
2022/12/07 02:00:02;;;;;;;;;;;;;;;;;;5043424;28;1243;-82
2022/12/07 02:02:38;;;;;;;;;;;;;;;;;;5061355;28;990;-82
2022/12/07 02:05:04;;;;;;;;;;;;;;;;;;5061465;28;1028;-82
2022/12/07 02:07:30;;;;;;;;;;;;;;;;;;5062733;28;1315;-83
2022/12/07 02:09:56;;;;;;;;;;;;;;;;;;5062626;28;877;-83
2022/12/07 02:12:23;;;;;;;;;;;;;;;;;;5063141;28;1031;-84
2022/12/07 02:14:49;;;;;;;;;;;;;;;;;;5062928;28;1119;-82
2022/12/07 02:17:15;;;;;;;;;;;;;;;;;;5061324;28;1977;-82
2022/12/07 02:19:41;;;;;;;;;;;;;;;;;;5059490;28;1144;-81
2022/12/07 02:22:07;;;;;;;;;;;;;;;;;;5059400;28;806;-82
2022/12/07 02:24:33;;;;;;;;;;;;;;;;;;5059999;28;1064;-82
2022/12/07 02:26:59;;;;;;;;;;;;;;;;;;5042395;28;1298;-82
2022/12/07 02:29:25;;;;;;;;;;;;;;;;;;5059725;28;1127;-81
2022/12/07 02:31:51;;;;;;;;;;;;;;;;;;5059520;28;954;-82
2022/12/07 02:34:17;;;;;;;;;;;;;;;;;;5061325;28;1060;-82
2022/12/07 02:36:43;;;;;;;;;;;;;;;;;;5060909;28;2002;-82
2022/12/07 02:39:10;;;;;;;;;;;;;;;;;;5061964;28;1297;-82
2022/12/07 02:41:36;;;;;;;;;;;;;;;;;;5060795;28;1072;-80
2022/12/07 02:44:02;;;;;;;;;;;;;;;;;;5062193;28;1069;-82
2022/12/07 02:46:28;;;;;;;;;;;;;;;;;;5063420;28;889;-83
2022/12/07 02:48:54;;;;;;;;;;;;;;;;;;5070035;28;1320;-83
2022/12/07 02:51:20;;;;;;;;;;;;;;;;;;5065970;28;917;-83
2022/12/07 02:53:46;;;;;;;;;;;;;;;;;;5064943;28;1037;-83
2022/12/07 02:56:12;;;;;;;;;;;;;;;;;;5060600;28;1902;-82
2022/12/07 02:58:38;;;;;;;;;;;;;;;;;;5060763;28;1452;-82
2022/12/07 03:01:04;;;;;;;;;;;;;;;;;;5060873;28;1118;-84
2022/12/07 03:03:30;;;;;;;;;;;;;;;;;;5041836;28;1137;-83
2022/12/07 03:05:56;;;;;;;;;;;;;;;;;;5042373;28;1395;-83
2022/12/07 03:08:22;;;;;;;;;;;;;;;;;;5064422;28;1324;-81
2022/12/07 03:10:49;;;;;;;;;;;;;;;;;;5063478;28;1060;-82
2022/12/07 03:13:15;;;;;;;;;;;;;;;;;;5063335;28;889;-81
2022/12/07 03:15:41;;;;;;;;;;;;;;;;;;5064944;28;1973;-82
2022/12/07 03:18:07;;;;;;;;;;;;;;;;;;5046226;28;1318;-82
2022/12/07 03:20:33;;;;;;;;;;;;;;;;;;5063768;28;1078;-82
2022/12/07 03:22:59;;;;;;;;;;;;;;;;;;5064145;28;829;-82
2022/12/07 03:25:25;;;;;;;;;;;;;;;;;;5063871;28;1064;-81
2022/12/07 03:27:52;;;;;;;;;;;;;;;;;;5065510;28;1326;-82
2022/12/07 03:30:18;;;;;;;;;;;;;;;;;;5045581;28;1321;-83
2022/12/07 03:32:44;;;;;;;;;;;;;;;;;;5062812;28;1123;-80
2022/12/07 03:35:10;;;;;;;;;;;;;;;;;;5062373;28;2635;-82
2022/12/07 03:37:37;;;;;;;;;;;;;;;;;;5036614;28;1904;-81
2022/12/07 03:40:03;;;;;;;;;;;;;;;;;;5062614;28;1087;-82
2022/12/07 03:42:29;;;;;;;;;;;;;;;;;;5063050;28;1059;-82
2022/12/07 03:44:55;;;;;;;;;;;;;;;;;;5045865;28;1212;-82
2022/12/07 03:47:21;;;;;;;;;;;;;;;;;;5064336;28;1293;-81
2022/12/07 03:49:47;;;;;;;;;;;;;;;;;;5064784;28;1051;-82
2022/12/07 03:52:13;;;;;;;;;;;;;;;;;;5064319;28;1116;-82
2022/12/07 03:54:39;;;;;;;;;;;;;;;;;;5064203;28;1070;-82
2022/12/07 03:57:05;;;;;;;;;;;;;;;;;;5064660;28;1975;-82
2022/12/07 03:59:31;;;;;;;;;;;;;;;;;;5047848;28;1313;-82
2022/12/07 04:01:58;;;;;;;;;;;;;;;;;;5048005;28;1139;-82
2022/12/07 04:04:24;;;;;;;;;;;;;;;;;;5066297;28;1037;-82
2022/12/07 04:06:50;;;;;;;;;;;;;;;;;;5063019;28;2110;-80
2022/12/07 04:09:16;;;;;;;;;;;;;;;;;;5043660;28;1845;-81
2022/12/07 04:11:42;;;;;;;;;;;;;;;;;;5041586;28;1811;-81
2022/12/07 04:14:21;;;;;;;;;;;;;;;;;;5042408;28;1809;-82
2022/12/07 04:16:47;;;;;;;;;;;;;;;;;;5035669;28;1969;-78
2022/12/07 04:19:13;;;;;;;;;;;;;;;;;;5040787;28;1818;-81
2022/12/07 04:21:39;;;;;;;;;;;;;;;;;;5079700;22;3722;-74
2022/12/07 04:24:05;;;;;;;;;;;;;;;;;;5072765;28;1146;-75
2022/12/07 04:26:31;;;;;;;;;;;;;;;;;;5073382;28;980;-74
2022/12/07 04:28:57;;;;;;;;;;;;;;;;;;5073105;28;1056;-74
2022/12/07 04:31:23;;;;;;;;;;;;;;;;;;5070928;28;1312;-74
2022/12/07 04:33:49;;;;;;;;;;;;;;;;;;5072508;28;1399;-74
2022/12/07 04:36:16;;;;;;;;;;;;;;;;;;5073082;28;1972;-74
2022/12/07 04:38:42;;;;;;;;;;;;;;;;;;5073147;28;984;-74
2022/12/07 04:41:08;;;;;;;;;;;;;;;;;;5072971;28;1324;-74
2022/12/07 04:43:34;;;;;;;;;;;;;;;;;;5072476;28;825;-74
2022/12/07 04:46:00;;;;;;;;;;;;;;;;;;5073135;28;1102;-74
2022/12/07 04:48:26;;;;;;;;;;;;;;;;;;5071624;28;1246;-74
2022/12/07 04:50:52;;;;;;;;;;;;;;;;;;5072842;28;1397;-74
2022/12/07 04:53:18;;;;;;;;;;;;;;;;;;5070706;28;1199;-72
2022/12/07 04:55:44;;;;;;;;;;;;;;;;;;5072995;28;773;-74
2022/12/07 04:58:10;;;;;;;;;;;;;;;;;;5071546;28;2085;-75
2022/12/07 05:00:36;;;;;;;;;;;;;;;;;;5072829;28;1063;-74
2022/12/07 05:03:02;;;;;;;;;;;;;;;;;;5071943;28;1410;-75
2022/12/07 05:05:28;;;;;;;;;;;;;;;;;;5072641;28;1016;-74
2022/12/07 05:07:54;;;;;;;;;;;;;;;;;;5072618;28;948;-74
2022/12/07 05:10:20;;;;;;;;;;;;;;;;;;5072512;28;1051;-74
2022/12/07 05:12:47;;;;;;;;;;;;;;;;;;5071779;28;1247;-75
2022/12/07 05:15:13;;;;;;;;;;;;;;;;;;5072457;28;841;-74
2022/12/07 05:17:39;;;;;;;;;;;;;;;;;;5072299;28;1979;-75
2022/12/07 05:20:05;;;;;;;;;;;;;;;;;;5072008;28;1130;-73
2022/12/07 05:22:31;;;;;;;;;;;;;;;;;;5071397;28;1353;-74
2022/12/07 05:24:57;;;;;;;;;;;;;;;;;;5070860;28;1374;-74
2022/12/07 05:27:23;;;;;;;;;;;;;;;;;;5071042;28;1305;-74
2022/12/07 05:29:49;;;;;;;;;;;;;;;;;;5071500;28;1016;-74
2022/12/07 05:32:15;;;;;;;;;;;;;;;;;;5071308;28;1391;-74
2022/12/07 05:34:41;;;;;;;;;;;;;;;;;;5072012;28;1059;-74
2022/12/07 05:37:07;;;;;;;;;;;;;;;;;;5071667;28;1914;-74
2022/12/07 05:39:33;;;;;;;;;;;;;;;;;;5070734;28;1231;-74
2022/12/07 05:42:15;;;;;;;;;;;;;;;;;;5071218;28;1309;-74
2022/12/07 05:44:41;;;;;;;;;;;;;;;;;;5071655;28;1107;-74
2022/12/07 05:47:07;;;;;;;;;;;;;;;;;;5072143;28;1035;-75
2022/12/07 05:49:33;;;;;;;;;;;;;;;;;;5064001;28;1155;-73
2022/12/07 05:51:59;;;;;;;;;;;;;;;;;;5009647;28;1301;-73
2022/12/07 05:54:25;;;;;;;;;;;;;;;;;;5055700;28;1421;-74
2022/12/07 05:56:52;;;;;;;;;;;;;;;;;;5019067;28;1910;-73
2022/12/07 05:59:23;;;;;;;;;;;;;;;;;;5003060;28;905;-74
2022/12/07 06:01:49;;;;;;;;;;;;;;;;;;5006303;28;1400;-74
2022/12/07 06:04:15;;;;;;;;;;;;;;;;;;5007058;28;913;-74
2022/12/07 06:06:42;;;;;;;;;;;;;;;;;;5005038;28;925;-74
2022/12/07 06:09:08;;;;;;;;;;;;;;;;;;5001797;28;1317;-74
2022/12/07 06:14:18;;;;;;;;;;;;;;;;;;5000230;28;1040;-74
2022/12/07 06:16:44;;;;;;;;;;;;;;;;;;4998827;28;2103;-73
2022/12/07 06:19:10;;;;;;;;;;;;;;;;;;5011048;28;1331;-72
2022/12/07 06:21:36;;;;;;;;;;;;;;;;;;5001905;28;1294;-72
2022/12/07 06:24:03;;;;;;;;;;;;;;;;;;5030674;28;887;-74
2022/12/07 06:26:29;;;;;;;;;;;;;;;;;;5057446;28;1475;-73
2022/12/07 06:28:55;;;;;;;;;;;;;;;;;;5053092;28;1153;-75
2022/12/07 06:31:21;;;;;;;;;;;;;;;;;;5064830;28;1481;-74
2022/12/07 06:33:47;;;;;;;;;;;;;;;;;;5070998;28;857;-73
2022/12/07 06:36:13;;;;;;;;;;;;;;;;;;5071186;28;1158;-75
2022/12/07 06:38:39;;;;;;;;;;;;;;;;;;5068619;28;1975;-72
2022/12/07 06:41:06;;;;;;;;;;;;;;;;;;5057911;28;1499;-74
2022/12/07 06:43:32;;;;;;;;;;;;;;;;;;5071653;28;1248;-74
2022/12/07 06:45:58;;;;;;;;;;;;;;;;;;5064577;28;1419;-75
2022/12/07 06:48:24;;;;;;;;;;;;;;;;;;5073198;28;1279;-75
2022/12/07 06:50:50;;;;;;;;;;;;;;;;;;5072983;28;1504;-74
2022/12/07 06:53:16;;;;;;;;;;;;;;;;;;5070381;28;1377;-73
2022/12/07 06:55:42;;;;;;;;;;;;;;;;;;5066364;28;995;-73
2022/12/07 06:58:08;;;;;;;;;;;;;;;;;;5070229;28;2285;-73
2022/12/07 07:00:35;;;;;;;;;;;;;;;;;;5067455;28;1379;-73
2022/12/07 07:03:01;;;;;;;;;;;;;;;;;;5072612;28;1294;-73
2022/12/07 07:05:27;;;;;;;;;;;;;;;;;;5070817;28;1400;-74
2022/12/07 07:07:53;;;;;;;;;;;;;;;;;;5072971;28;1246;-73
2022/12/07 07:10:19;;;;;;;;;;;;;;;;;;5072144;28;1516;-74
2022/12/07 07:12:45;;;;;;;;;;;;;;;;;;5072972;28;1466;-74
2022/12/07 07:15:12;;;;;;;;;;;;;;;;;;5074463;28;1103;-74
2022/12/07 07:17:38;;;;;;;;;;;;;;;;;;5068894;28;1907;-73
2022/12/07 07:20:04;;;;;;;;;;;;;;;;;;5073987;28;998;-75
2022/12/07 07:22:30;;;;;;;;;;;;;;;;;;5071721;28;1430;-76
2022/12/07 07:24:56;;;;;;;;;;;;;;;;;;5073930;28;1149;-75
2022/12/07 07:27:22;;;;;;;;;;;;;;;;;;5072853;28;1462;-74
2022/12/07 07:29:48;;;;;;;;;;;;;;;;;;5066178;28;1644;-74
2022/12/07 07:32:15;;;;;;;;;;;;;;;;;;5072750;28;1388;-73
2022/12/07 07:34:41;;;;;;;;;;;;;;;;;;5063419;28;1395;-75
2022/12/07 07:37:07;;;;;;;;;;;;;;;;;;5073808;28;1973;-75
2022/12/07 07:39:33;;;;;;;;;;;;;;;;;;5072240;28;2433;-74
2022/12/07 07:41:59;;;;;;;;;;;;;;;;;;5072909;28;1345;-74
2022/12/07 07:44:27;;;;;;;;;;;;;;;;;;5072604;28;1474;-74
2022/12/07 07:46:53;;;;;;;;;;;;;;;;;;5071654;28;1420;-75
2022/12/07 07:49:19;;;;;;;;;;;;;;;;;;5065227;28;1433;-76
2022/12/07 07:51:45;;;;;;;;;;;;;;;;;;5058408;28;1468;-76
2022/12/07 07:54:11;;;;;;;;;;;;;;;;;;5074147;28;1036;-76
2022/12/07 07:56:37;;;;;;;;;;;;;;;;;;5070036;28;1913;-75
2022/12/07 07:59:03;;;;;;;;;;;;;;;;;;5074230;28;1184;-74
2022/12/07 08:01:29;;;;;;;;;;;;;;;;;;5069666;28;1411;-75
2022/12/07 08:03:55;;;;;;;;;;;;;;;;;;5067956;28;1381;-75
2022/12/07 08:06:21;;;;;;;;;;;;;;;;;;5074241;28;981;-76
2022/12/07 08:08:47;;;;;;;;;;;;;;;;;;5063948;28;1469;-73
2022/12/07 08:11:13;;;;;;;;;;;;;;;;;;5070384;28;1324;-74
2022/12/07 08:13:39;;;;;;;;;;;;;;;;;;5068025;28;1361;-74
2022/12/07 08:16:05;;;;;;;;;;;;;;;;;;5071977;28;1165;-74
2022/12/07 08:18:32;;;;;;;;;;;;;;;;;;5073990;28;1914;-76
2022/12/07 08:20:58;;;;;;;;;;;;;;;;;;5070286;28;1493;-74
2022/12/07 08:23:24;;;;;;;;;;;;;;;;;;5070017;28;1385;-74
2022/12/07 08:25:50;;;;;;;;;;;;;;;;;;5067466;28;1424;-74
2022/12/07 08:28:16;;;;;;;;;;;;;;;;;;5072554;28;1489;-75
2022/12/07 08:30:42;;;;;;;;;;;;;;;;;;5071813;28;1499;-75
2022/12/07 08:33:08;;;;;;;;;;;;;;;;;;5072686;28;1314;-74
2022/12/07 08:35:34;;;;;;;;;;;;;;;;;;5074391;28;1139;-75
2022/12/07 08:38:01;;;;;;;;;;;;;;;;;;5071908;28;1906;-74
2022/12/07 08:40:28;;;;;;;;;;;;;;;;;;5074469;28;1232;-74
2022/12/07 08:42:54;;;;;;;;;;;;;;;;;;5071598;28;1314;-75
2022/12/07 08:45:20;;;;;;;;;;;;;;;;;;5069083;28;1394;-74
2022/12/07 08:47:46;;;;;;;;;;;;;;;;;;5069407;28;1233;-74
2022/12/07 08:50:12;;;;;;;;;;;;;;;;;;5073209;28;930;-74
2022/12/07 08:52:38;;;;;;;;;;;;;;;;;;5072952;28;1392;-74
2022/12/07 08:55:04;;;;;;;;;;;;;;;;;;5073979;28;916;-74
2022/12/07 08:57:30;;;;;;;;;;;;;;;;;;5073505;28;1981;-75
2022/12/07 08:59:56;;;;;;;;;;;;;;;;;;5071703;28;1450;-74
2022/12/07 09:02:22;;;;;;;;;;;;;;;;;;5071987;28;1406;-75
2022/12/07 09:04:48;;;;;;;;;;;;;;;;;;5073189;28;956;-73
2022/12/07 09:07:15;;;;;;;;;;;;;;;;;;5071360;28;1461;-74
2022/12/07 09:09:41;;;;;;;;;;;;;;;;;;5057072;28;1254;-74
2022/12/07 09:12:07;;;;;;;;;;;;;;;;;;5052225;28;1314;-74
2022/12/07 09:14:33;;;;;;;;;;;;;;;;;;5053644;28;1055;-73
2022/12/07 09:16:59;;;;;;;;;;;;;;;;;;5063406;28;1918;-73
2022/12/07 09:19:25;;;;;;;;;;;;;;;;;;5071131;28;1632;-74
2022/12/07 09:21:51;;;;;;;;;;;;;;;;;;5069895;28;1401;-74
2022/12/07 09:24:18;;;;;;;;;;;;;;;;;;5078554;28;1079;-73
2022/12/07 09:26:44;;;;;;;;;;;;;;;;;;5068254;28;1458;-74
2022/12/07 09:29:10;;;;;;;;;;;;;;;;;;5070785;28;968;-74
2022/12/07 09:31:36;;;;;;;;;;;;;;;;;;5071841;28;1406;-73
2022/12/07 09:34:02;;;;;;;;;;;;;;;;;;5060378;28;1454;-73
2022/12/07 09:36:28;;;;;;;;;;;;;;;;;;5065691;28;1142;-73
2022/12/07 09:38:54;;;;;;;;;;;;;;;;;;5071331;28;1910;-73
2022/12/07 09:41:20;;;;;;;;;;;;;;;;;;5072092;28;1925;-73
2022/12/07 09:43:46;;;;;;;;;;;;;;;;;;5066399;28;1424;-73
2022/12/07 09:46:12;;;;;;;;;;;;;;;;;;5072354;28;723;-74
2022/12/07 09:48:39;;;;;;;;;;;;;;;;;;5068985;28;1439;-73
2022/12/07 09:51:05;;;;;;;;;;;;;;;;;;5071955;28;1299;-73
2022/12/07 09:53:31;;;;;;;;;;;;;;;;;;5071695;28;996;-74
2022/12/07 09:55:57;;;;;;;;;;;;;;;;;;5069659;28;1565;-74
2022/12/07 09:58:23;;;;;;;;;;;;;;;;;;5065646;28;1910;-76
2022/12/07 10:00:49;;;;;;;;;;;;;;;;;;5067601;28;1518;-74
2022/12/07 10:03:16;;;;;;;;;;;;;;;;;;5070786;28;1264;-74
2022/12/07 10:05:42;;;;;;;;;;;;;;;;;;5071087;28;1383;-74
2022/12/07 10:08:08;;;;;;;;;;;;;;;;;;5072269;28;1123;-74
2022/12/07 10:10:34;;;;;;;;;;;;;;;;;;5070626;28;1972;-74
2022/12/07 10:13:00;;;;;;;;;;;;;;;;;;5069080;28;1377;-73
2022/12/07 10:15:26;;;;;;;;;;;;;;;;;;5064516;28;1172;-74
2022/12/07 10:17:52;;;;;;;;;;;;;;;;;;5070255;28;1969;-73
2022/12/07 10:20:18;;;;;;;;;;;;;;;;;;5071330;28;1362;-74
2022/12/07 10:22:44;;;;;;;;;;;;;;;;;;5094930;22;3566;-79
2022/12/07 10:25:10;;;;;;;;;;;;;;;;;;5096949;28;1716;-79
2022/12/07 10:27:36;;;;;;;;;;;;;;;;;;5094631;28;1427;-79
2022/12/07 10:30:03;;;;;;;;;;;;;;;;;;5083226;28;1719;-77
2022/12/07 10:32:29;;;;;;;;;;;;;;;;;;5092158;28;1448;-79
2022/12/07 10:34:55;;;;;;;;;;;;;;;;;;5094556;28;833;-79
2022/12/07 10:37:25;;;;;;;;;;;;;;;;;;5079403;28;1988;-78
2022/12/07 10:39:51;;;;;;;;;;;;;;;;;;5093704;28;2183;-78
2022/12/07 10:42:17;;;;;;;;;;;;;;;;;;5090931;28;1917;-79
2022/12/07 10:44:44;;;;;;;;;;;;;;;;;;5093468;28;1213;-79
2022/12/07 10:47:10;;;;;;;;;;;;;;;;;;5087958;28;1569;-80
2022/12/07 10:49:36;;;;;;;;;;;;;;;;;;5095549;28;1730;-79
2022/12/07 10:52:02;;;;;;;;;;;;;;;;;;5092190;28;1818;-78
2022/12/07 10:54:28;;;;;;;;;;;;;;;;;;5094001;28;1814;-79
2022/12/07 10:56:54;;;;;;;;;;;;;;;;;;5088984;28;1834;-80
2022/12/07 10:59:20;;;;;;;;;;;;;;;;;;5095161;28;1948;-79
2022/12/07 11:01:46;;;;;;;;;;;;;;;;;;5098907;28;1786;-79
2022/12/07 11:04:13;;;;;;;;;;;;;;;;;;5098486;28;1224;-80
2022/12/07 11:06:39;;;;;;;;;;;;;;;;;;5095193;28;1702;-80
2022/12/07 11:09:05;;;;;;;;;;;;;;;;;;5090988;28;1771;-80
2022/12/07 11:11:31;;;;;;;;;;;;;;;;;;5090294;28;2037;-76
2022/12/07 11:13:57;;;;;;;;;;;;;;;;;;5088201;28;1976;-80
2022/12/07 11:16:23;;;;;;;;;;;;;;;;;;5090687;28;2326;-77
2022/12/07 11:18:50;;;;;;;;;;;;;;;;;;5089513;28;1895;-79
2022/12/07 11:21:16;;;;;;;;;;;;;;;;;;5088088;28;1857;-79
2022/12/07 11:23:42;;;;;;;;;;;;;;;;;;5092554;28;2045;-80
2022/12/07 11:26:08;;;;;;;;;;;;;;;;;;5107747;28;1421;-82
2022/12/07 11:28:34;;;;;;;;;;;;;;;;;;5107877;28;1220;-83
2022/12/07 11:31:00;;;;;;;;;;;;;;;;;;5110236;28;1226;-83
2022/12/07 11:33:26;;;;;;;;;;;;;;;;;;5102754;28;1467;-81
2022/12/07 11:35:52;;;;;;;;;;;;;;;;;;5109126;28;1252;-82
2022/12/07 11:38:19;;;;;;;;;;;;;;;;;;5105113;28;2155;-83
2022/12/07 11:40:45;;;;;;;;;;;;;;;;;;5108782;28;1033;-83
2022/12/07 11:43:11;;;;;;;;;;;;;;;;;;5109299;28;1332;-81
2022/12/07 11:45:37;;;;;;;;;;;;;;;;;;5109124;28;976;-83
2022/12/07 11:48:03;;;;;;;;;;;;;;;;;;5108924;28;850;-82
2022/12/07 11:50:29;;;;;;;;;;;;;;;;;;5103809;28;2144;-82
2022/12/07 11:52:55;;;;;;;;;;;;;;;;;;5100158;28;1720;-81
2022/12/07 11:55:22;;;;;;;;;;;;;;;;;;5098794;28;1373;-83
2022/12/07 11:57:48;;;;;;;;;;;;;;;;;;5100633;28;1975;-82
2022/12/07 12:00:14;;;;;;;;;;;;;;;;;;5095615;28;1134;-83
2022/12/07 12:02:40;;;;;;;;;;;;;;;;;;5093056;28;1337;-81
2022/12/07 12:05:07;;;;;;;;;;;;;;;;;;5099674;28;1746;-84
2022/12/07 12:07:33;;;;;;;;;;;;;;;;;;5103043;28;1730;-82
2022/12/07 12:10:00;;;;;;;;;;;;;;;;;;5102870;28;1577;-82
2022/12/07 12:12:26;;;;;;;;;;;;;;;;;;5095110;28;1825;-81
2022/12/07 12:14:52;;;;;;;;;;;;;;;;;;5096248;28;1098;-82
2022/12/07 12:17:18;;;;;;;;;;;;;;;;;;5098618;28;1131;-82
2022/12/07 12:19:44;;;;;;;;;;;;;;;;;;5099301;28;1973;-81
2022/12/07 12:22:10;;;;;;;;;;;;;;;;;;5097608;28;1329;-80
2022/12/07 12:24:36;;;;;;;;;;;;;;;;;;5097545;28;1738;-83
2022/12/07 12:27:02;;;;;;;;;;;;;;;;;;5098033;28;1077;-82
2022/12/07 12:29:28;;;;;;;;;;;;;;;;;;5098097;28;1113;-81
2022/12/07 12:31:55;;;;;;;;;;;;;;;;;;5095860;28;1632;-84
2022/12/07 12:34:21;;;;;;;;;;;;;;;;;;5093422;28;1233;-81
2022/12/07 12:36:47;;;;;;;;;;;;;;;;;;5092027;28;692;-79
2022/12/07 12:39:14;;;;;;;;;;;;;;;;;;5100075;28;1970;-81
2022/12/07 12:42:05;;;;;;;;;;;;;;;;;;5095082;28;1714;-82
2022/12/07 12:44:26;;;;;;;;;;;;;;;;;;5096069;28;1557;-81
2022/12/07 12:46:52;;;;;;;;;;;;;;;;;;5099044;28;1194;-82
2022/12/07 12:49:19;;;;;;;;;;;;;;;;;;5101143;28;1110;-80
2022/12/07 12:51:46;;;;;;;;;;;;;;;;;;5097914;28;1750;-79
2022/12/07 12:54:13;;;;;;;;;;;;;;;;;;5096802;28;1404;-84
2022/12/07 12:56:39;;;;;;;;;;;;;;;;;;5094122;28;1162;-80
2022/12/07 12:59:05;;;;;;;;;;;;;;;;;;5093123;28;2092;-80
2022/12/07 13:01:31;;;;;;;;;;;;;;;;;;5092890;28;1194;-79
2022/12/07 13:03:57;;;;;;;;;;;;;;;;;;5086613;28;1433;-79
2022/12/07 13:06:24;;;;;;;;;;;;;;;;;;5094194;28;1893;-80
2022/12/07 13:08:50;;;;;;;;;;;;;;;;;;5086804;28;1890;-79
2022/12/07 13:11:16;;;;;;;;;;;;;;;;;;5090289;28;1359;-79
2022/12/07 13:13:42;;;;;;;;;;;;;;;;;;5090637;28;1450;-80
2022/12/07 13:16:09;;;;;;;;;;;;;;;;;;5093987;28;1485;-79
2022/12/07 13:18:35;;;;;;;;;;;;;;;;;;5094452;28;1914;-79
2022/12/07 13:21:01;;;;;;;;;;;;;;;;;;5092195;28;1410;-80
2022/12/07 13:23:27;;;;;;;;;;;;;;;;;;5088160;28;1376;-81
2022/12/07 13:25:53;;;;;;;;;;;;;;;;;;5085345;28;2146;-80
2022/12/07 13:28:19;;;;;;;;;;;;;;;;;;5087657;28;1782;-79
2022/12/07 13:30:45;;;;;;;;;;;;;;;;;;5086710;28;1811;-78
2022/12/07 13:33:11;;;;;;;;;;;;;;;;;;5086112;28;1419;-81
2022/12/07 13:35:38;;;;;;;;;;;;;;;;;;5086780;28;1686;-78
2022/12/07 13:38:04;;;;;;;;;;;;;;;;;;5082465;28;1754;-79
2022/12/07 13:40:30;;;;;;;;;;;;;;;;;;5086260;28;2083;-78
2022/12/07 13:42:56;;;;;;;;;;;;;;;;;;5084681;28;1782;-80
2022/12/07 13:45:47;;;;;;;;;;;;;;;;;;5080890;28;1355;-78
2022/12/07 13:48:08;;;;;;;;;;;;;;;;;;5091338;28;1516;-79
2022/12/07 13:50:35;;;;;;;;;;;;;;;;;;5091523;28;1956;-80
2022/12/07 13:53:01;;;;;;;;;;;;;;;;;;5090074;28;1754;-75
2022/12/07 13:55:27;;;;;;;;;;;;;;;;;;5090423;28;2103;-80
2022/12/07 13:57:53;;;;;;;;;;;;;;;;;;5090603;28;1081;-81
2022/12/07 14:00:19;;;;;;;;;;;;;;;;;;5093090;28;2040;-80
2022/12/07 14:02:45;;;;;;;;;;;;;;;;;;5092057;28;1345;-80
2022/12/07 14:05:11;;;;;;;;;;;;;;;;;;5091409;28;1419;-80
2022/12/07 14:07:37;;;;;;;;;;;;;;;;;;5088806;28;1622;-80
2022/12/07 14:10:04;;;;;;;;;;;;;;;;;;5081552;28;1704;-82
2022/12/07 14:12:31;;;;;;;;;;;;;;;;;;5087526;28;1362;-78
2022/12/07 14:14:57;;;;;;;;;;;;;;;;;;5087780;28;1074;-79
2022/12/07 14:17:23;;;;;;;;;;;;;;;;;;5085938;28;1236;-79
2022/12/07 14:19:49;;;;;;;;;;;;;;;;;;5079053;28;1972;-78
2022/12/07 14:22:16;;;;;;;;;;;;;;;;;;5084905;28;1300;-79
2022/12/07 14:24:42;;;;;;;;;;;;;;;;;;5086830;28;996;-80
2022/12/07 14:27:08;;;;;;;;;;;;;;;;;;5083549;28;1417;-79
2022/12/07 14:29:34;;;;;;;;;;;;;;;;;;5076507;28;1589;-79
2022/12/07 14:32:00;;;;;;;;;;;;;;;;;;5089047;28;1318;-82
2022/12/07 14:34:26;;;;;;;;;;;;;;;;;;5089660;28;1671;-82
2022/12/07 14:36:52;;;;;;;;;;;;;;;;;;5090410;28;1885;-79
2022/12/07 14:39:18;;;;;;;;;;;;;;;;;;5093853;28;1953;-80
2022/12/07 14:41:53;;;;;;;;;;;;;;;;;;5093107;28;1244;-78
2022/12/07 14:44:20;;;;;;;;;;;;;;;;;;5093268;28;1087;-80
2022/12/07 14:46:46;;;;;;;;;;;;;;;;;;5090278;28;1463;-80
2022/12/07 14:49:12;;;;;;;;;;;;;;;;;;5089442;28;1909;-81
2022/12/07 14:51:38;;;;;;;;;;;;;;;;;;5087477;28;1147;-81
2022/12/07 14:54:04;;;;;;;;;;;;;;;;;;5089822;28;1743;-79
2022/12/07 14:56:30;;;;;;;;;;;;;;;;;;5091022;28;1817;-83
2022/12/07 14:58:57;;;;;;;;;;;;;;;;;;5095932;28;1976;-79
2022/12/07 15:01:23;;;;;;;;;;;;;;;;;;5091840;28;1095;-81
2022/12/07 15:03:49;;;;;;;;;;;;;;;;;;5095513;28;1756;-82
2022/12/07 15:06:16;;;;;;;;;;;;;;;;;;5098839;28;1968;-82
2022/12/07 15:08:43;;;;;;;;;;;;;;;;;;5102990;28;1413;-80
2022/12/07 15:11:10;;;;;;;;;;;;;;;;;;5092806;28;1723;-83
2022/12/07 15:16:20;;;;;;;;;;;;;;;;;;5091656;28;1431;-80
2022/12/07 15:18:46;;;;;;;;;;;;;;;;;;5093193;28;1918;-81
2022/12/07 15:21:12;;;;;;;;;;;;;;;;;;5089565;28;1413;-81
2022/12/07 15:23:38;;;;;;;;;;;;;;;;;;5095791;28;1330;-82
2022/12/07 15:26:04;;;;;;;;;;;;;;;;;;5095894;28;1431;-81
2022/12/07 15:28:31;;;;;;;;;;;;;;;;;;5098456;28;1216;-78
2022/12/07 15:30:57;;;;;;;;;;;;;;;;;;5108514;28;1059;-83
2022/12/07 15:33:23;;;;;;;;;;;;;;;;;;5096479;28;1398;-83
2022/12/07 15:35:49;;;;;;;;;;;;;;;;;;5086122;28;1419;-84
2022/12/07 15:38:15;;;;;;;;;;;;;;;;;;5094856;28;1351;-83
2022/12/07 15:40:41;;;;;;;;;;;;;;;;;;5095896;28;2019;-79
2022/12/07 15:45:03;;;;;;;;;;;;;;;;;;5093495;28;1713;-80
2022/12/07 15:45:53;;;;;;;;;;;;;;;;;;5092512;28;1271;-80
2022/12/07 15:48:19;;;;;;;;;;;;;;;;;;5094245;28;2029;-80
2022/12/07 15:50:45;;;;;;;;;;;;;;;;;;5094375;28;2068;-83
2022/12/07 15:53:11;;;;;;;;;;;;;;;;;;5095249;28;1833;-83
2022/12/07 15:55:37;;;;;;;;;;;;;;;;;;5088797;28;1767;-80
2022/12/07 15:58:03;;;;;;;;;;;;;;;;;;5090667;28;1405;-80
2022/12/07 16:00:29;;;;;;;;;;;;;;;;;;5094437;28;2016;-80
2022/12/07 16:02:55;;;;;;;;;;;;;;;;;;5096130;28;1433;-83
2022/12/07 16:05:21;;;;;;;;;;;;;;;;;;5093601;28;1841;-78
2022/12/07 16:07:48;;;;;;;;;;;;;;;;;;5092143;28;1688;-80
2022/12/07 16:10:14;;;;;;;;;;;;;;;;;;5091180;28;1710;-77
2022/12/07 16:12:40;;;;;;;;;;;;;;;;;;5084972;28;2008;-79
2022/12/07 16:15:06;;;;;;;;;;;;;;;;;;5090077;28;1797;-80
2022/12/07 16:17:32;;;;;;;;;;;;;;;;;;5093685;28;2137;-79
2022/12/07 16:19:58;;;;;;;;;;;;;;;;;;5092177;28;1898;-79
2022/12/07 16:22:24;;;;;;;;;;;;;;;;;;5087865;28;1822;-80
2022/12/07 16:24:51;;;;;;;;;;;;;;;;;;5084332;28;1695;-81
2022/12/07 16:27:17;;;;;;;;;;;;;;;;;;5083533;28;1151;-80
2022/12/07 16:29:43;;;;;;;;;;;;;;;;;;5086608;28;2256;-81
2022/12/07 16:32:09;;;;;;;;;;;;;;;;;;5089451;28;1779;-81
2022/12/07 16:34:35;;;;;;;;;;;;;;;;;;5090099;28;1830;-78
2022/12/07 16:37:01;;;;;;;;;;;;;;;;;;5090931;28;1821;-79
2022/12/07 16:39:27;;;;;;;;;;;;;;;;;;5094487;28;1987;-81
2022/12/07 16:41:53;;;;;;;;;;;;;;;;;;5084795;28;2150;-80
2022/12/07 16:44:20;;;;;;;;;;;;;;;;;;5085371;28;2074;-77
2022/12/07 16:46:46;;;;;;;;;;;;;;;;;;5088305;28;1870;-78
2022/12/07 16:49:12;;;;;;;;;;;;;;;;;;5093816;28;1281;-80
2022/12/07 16:51:39;;;;;;;;;;;;;;;;;;5091792;28;1929;-80
2022/12/07 16:54:05;;;;;;;;;;;;;;;;;;5092737;28;2167;-82
2022/12/07 16:56:31;;;;;;;;;;;;;;;;;;5092778;28;2068;-80
2022/12/07 16:58:57;;;;;;;;;;;;;;;;;;5093073;28;1263;-81
2022/12/07 17:01:23;;;;;;;;;;;;;;;;;;5089725;28;2020;-81
2022/12/07 17:03:49;;;;;;;;;;;;;;;;;;5091876;28;1766;-81